createdAt,value
2018-07-11T00:01:51.106Z,2.47
2018-07-11T00:04:19.417Z,4.23
2018-07-11T00:06:47.864Z,4.43
2018-07-11T00:09:16.110Z,2.70
2018-07-11T00:11:44.375Z,4.50
2018-07-11T00:14:12.836Z,2.97
2018-07-11T00:16:45.338Z,2.60
2018-07-11T00:19:13.991Z,3.27
2018-07-11T00:21:42.264Z,3.30
2018-07-11T00:24:10.540Z,2.47
2018-07-11T00:26:39.029Z,2.93
2018-07-11T00:29:07.267Z,3.47
2018-07-11T00:31:36.093Z,2.17
2018-07-11T00:34:04.424Z,2.83
2018-07-11T00:36:32.921Z,2.87
2018-07-11T00:39:01.277Z,2.60
2018-07-11T00:41:29.749Z,2.43
2018-07-11T00:43:58.335Z,6.27
2018-07-11T00:46:26.876Z,2.73
2018-07-11T00:48:55.097Z,3.73
2018-07-11T00:51:23.839Z,5.87
2018-07-11T00:53:52.205Z,5.33
2018-07-11T00:56:20.719Z,3.10
2018-07-11T00:58:52.256Z,2.73
2018-07-11T01:01:21.402Z,3.30
2018-07-11T01:03:52.035Z,6.77
2018-07-11T01:06:20.676Z,2.50
2018-07-11T01:08:53.121Z,2.33
2018-07-11T01:11:22.796Z,2.70
2018-07-11T01:13:51.222Z,4.43
2018-07-11T01:16:20.429Z,4.67
2018-07-11T01:19:10.109Z,6.40
2018-07-11T01:21:38.587Z,4.37
2018-07-11T01:24:06.927Z,3.13
2018-07-11T01:26:36.577Z,4.13
2018-07-11T01:29:05.083Z,6.47
2018-07-11T01:31:33.441Z,3.50
2018-07-11T01:34:02.320Z,3.60
2018-07-11T01:36:31.004Z,5.00
2018-07-11T01:39:00.307Z,4.87
2018-07-11T01:41:28.701Z,2.73
2018-07-11T01:43:56.997Z,4.97
2018-07-11T01:46:28.937Z,6.30
2018-07-11T01:48:57.220Z,4.40
2018-07-11T01:51:37.268Z,3.30
2018-07-11T01:54:05.525Z,3.27
2018-07-11T01:56:33.798Z,3.90
2018-07-11T01:59:02.292Z,3.40
2018-07-11T02:01:30.640Z,4.60
2018-07-11T02:03:59.151Z,5.10
2018-07-11T02:06:27.412Z,3.90
2018-07-11T02:08:55.916Z,7.80
2018-07-11T02:11:24.195Z,4.87
2018-07-11T02:13:52.883Z,5.67
2018-07-11T02:16:21.205Z,7.80
2018-07-11T02:18:49.496Z,7.47
2018-07-11T02:21:17.908Z,7.97
2018-07-11T02:23:46.187Z,8.17
2018-07-11T02:26:14.446Z,9.53
2018-07-11T02:28:42.942Z,10.37
2018-07-11T02:31:11.275Z,11.10
2018-07-11T02:33:39.708Z,8.07
2018-07-11T02:36:08.282Z,7.97
2018-07-11T02:38:36.570Z,6.67
2018-07-11T02:41:04.971Z,9.43
2018-07-11T02:43:33.276Z,10.43
2018-07-11T02:46:02.625Z,6.10
2018-07-11T02:48:30.873Z,9.20
2018-07-11T02:51:00.094Z,6.70
2018-07-11T02:53:28.389Z,9.10
2018-07-11T02:55:56.642Z,8.87
2018-07-11T02:58:24.940Z,8.50
2018-07-11T03:00:53.228Z,8.23
2018-07-11T03:03:21.241Z,8.07
2018-07-11T03:05:49.528Z,9.23
2018-07-11T03:08:18.471Z,8.07
2018-07-11T03:10:47.067Z,8.77
2018-07-11T03:13:18.585Z,6.83
2018-07-11T03:15:46.857Z,8.03
2018-07-11T03:18:15.140Z,8.80
2018-07-11T03:20:43.465Z,8.27
2018-07-11T03:23:11.709Z,8.27
2018-07-11T03:25:39.961Z,8.67
2018-07-11T03:28:08.201Z,8.10
2018-07-11T03:30:36.494Z,7.13
2018-07-11T03:33:04.759Z,7.70
2018-07-11T03:35:33.139Z,8.37
2018-07-11T03:38:01.498Z,10.07
2018-07-11T03:40:29.808Z,9.90
2018-07-11T03:42:58.061Z,7.90
2018-07-11T03:45:26.600Z,6.47
2018-07-11T03:47:54.842Z,8.13
2018-07-11T03:50:23.217Z,10.83
2018-07-11T03:52:51.600Z,13.10
2018-07-11T03:55:19.845Z,9.33
2018-07-11T03:57:48.104Z,7.80
2018-07-11T04:00:16.324Z,8.40
2018-07-11T04:02:44.577Z,8.27
2018-07-11T04:05:12.852Z,7.70
2018-07-11T04:07:41.309Z,10.93
2018-07-11T04:10:09.553Z,8.90
2018-07-11T04:12:37.914Z,11.83
2018-07-11T04:15:06.217Z,9.93
2018-07-11T04:17:34.662Z,8.60
2018-07-11T04:20:03.127Z,7.83
2018-07-11T04:22:31.369Z,8.57
2018-07-11T04:24:59.649Z,8.57
2018-07-11T04:27:28.009Z,8.20
2018-07-11T04:29:56.306Z,8.87
2018-07-11T04:32:24.648Z,8.13
2018-07-11T04:34:52.917Z,12.77
2018-07-11T04:37:21.229Z,7.70
2018-07-11T04:39:49.541Z,9.10
2018-07-11T04:42:17.796Z,7.57
2018-07-11T04:44:46.035Z,8.90
2018-07-11T04:47:14.335Z,10.03
2018-07-11T04:49:42.884Z,12.00
2018-07-11T04:52:12.080Z,9.57
2018-07-11T04:54:40.441Z,10.23
2018-07-11T04:57:08.833Z,9.80
2018-07-11T04:59:37.056Z,9.93
2018-07-11T05:02:05.300Z,11.93
2018-07-11T05:04:33.560Z,7.80
2018-07-11T05:07:01.873Z,10.73
2018-07-11T05:09:30.126Z,11.33
2018-07-11T05:11:58.375Z,14.03
2018-07-11T05:14:26.698Z,10.63
2018-07-11T05:16:54.980Z,9.23
2018-07-11T05:19:23.209Z,11.13
2018-07-11T05:21:52.032Z,8.40
2018-07-11T05:24:20.314Z,10.33
2018-07-11T05:26:48.640Z,9.63
2018-07-11T05:29:16.916Z,9.43
2018-07-11T05:31:45.140Z,9.53
2018-07-11T05:34:13.447Z,9.47
2018-07-11T05:36:41.688Z,10.93
2018-07-11T05:39:10.043Z,9.67
2018-07-11T05:41:38.308Z,10.03
2018-07-11T05:44:06.611Z,9.47
2018-07-11T05:46:34.839Z,11.23
2018-07-11T05:49:03.141Z,11.20
2018-07-11T05:51:31.422Z,17.57
2018-07-11T05:53:59.749Z,8.67
2018-07-11T05:56:28.021Z,10.10
2018-07-11T05:58:56.280Z,8.57
2018-07-11T06:01:24.580Z,11.80
2018-07-11T06:03:53.000Z,8.90
2018-07-11T06:06:21.253Z,7.97
2018-07-11T06:08:49.628Z,7.67
2018-07-11T06:11:25.178Z,6.40
2018-07-11T06:13:54.259Z,9.20
2018-07-11T06:16:23.190Z,7.50
2018-07-11T06:18:51.396Z,7.93
2018-07-11T06:21:22.619Z,8.37
2018-07-11T06:23:50.872Z,9.73
2018-07-11T06:26:19.246Z,8.07
2018-07-11T06:28:47.509Z,6.53
2018-07-11T06:31:15.758Z,8.33
2018-07-11T06:33:44.077Z,5.97
2018-07-11T06:36:12.328Z,8.53
2018-07-11T06:38:40.520Z,8.87
2018-07-11T06:41:08.761Z,7.33
2018-07-11T06:43:37.076Z,7.60
2018-07-11T06:46:05.369Z,6.00
2018-07-11T06:48:34.647Z,6.70
2018-07-11T06:51:02.960Z,6.40
2018-07-11T06:53:31.232Z,6.17
2018-07-11T06:55:59.556Z,6.00
2018-07-11T06:58:27.742Z,7.03
2018-07-11T07:00:56.467Z,6.50
2018-07-11T07:03:24.827Z,6.97
2018-07-11T07:05:53.017Z,6.00
2018-07-11T07:08:21.292Z,8.20
2018-07-11T07:10:49.625Z,7.60
2018-07-11T07:13:17.945Z,6.43
2018-07-11T07:15:46.201Z,8.50
2018-07-11T07:18:14.440Z,7.00
2018-07-11T07:20:42.721Z,7.70
2018-07-11T07:23:11.031Z,6.70
2018-07-11T07:25:39.338Z,6.57
2018-07-11T07:28:07.658Z,6.13
2018-07-11T07:30:35.908Z,8.40
2018-07-11T07:33:04.196Z,8.17
2018-07-11T07:35:32.482Z,8.07
2018-07-11T07:38:00.865Z,6.20
2018-07-11T07:40:29.100Z,6.17
2018-07-11T07:42:57.400Z,7.53
2018-07-11T07:45:25.701Z,6.10
2018-07-11T07:47:54.040Z,11.37
2018-07-11T07:50:22.281Z,8.17
2018-07-11T07:52:50.967Z,8.47
2018-07-11T07:55:19.189Z,9.73
2018-07-11T07:57:47.462Z,8.73
2018-07-11T08:00:15.726Z,6.57
2018-07-11T08:02:43.965Z,13.73
2018-07-11T08:05:12.372Z,7.23
2018-07-11T08:07:40.692Z,5.83
2018-07-11T08:10:10.295Z,6.30
2018-07-11T08:12:38.848Z,6.87
2018-07-11T08:15:07.772Z,5.77
2018-07-11T08:17:36.034Z,6.40
2018-07-11T08:20:04.340Z,6.33
2018-07-11T08:23:12.264Z,5.40
2018-07-11T08:25:52.420Z,5.87
2018-07-11T08:29:31.759Z,4.63
2018-07-11T08:32:11.014Z,4.77
2018-07-11T08:34:50.257Z,4.50
2018-07-11T08:39:33.639Z,4.87
2018-07-11T08:42:14.023Z,4.23
2018-07-11T08:44:54.532Z,3.90
2018-07-11T08:49:56.185Z,3.83
2018-07-11T08:52:35.012Z,4.63
2018-07-11T08:57:16.549Z,5.57
2018-07-11T09:00:00.644Z,5.37
2018-07-11T09:04:49.289Z,4.53
2018-07-11T09:07:32.424Z,7.50
2018-07-11T09:10:12.241Z,4.77
2018-07-11T09:14:02.521Z,6.00
2018-07-11T09:17:48.906Z,6.03
2018-07-11T09:21:28.226Z,6.00
2018-07-11T09:24:02.497Z,5.33
2018-07-11T09:26:30.777Z,4.17
2018-07-11T09:28:58.953Z,4.83
2018-07-11T09:31:27.221Z,6.83
2018-07-11T09:33:55.444Z,4.70
2018-07-11T09:36:23.701Z,4.33
2018-07-11T09:38:52.001Z,4.63
2018-07-11T09:41:20.360Z,3.67
2018-07-11T09:43:48.855Z,3.20
2018-07-11T09:46:17.116Z,3.80
2018-07-11T09:48:46.000Z,6.13
2018-07-11T09:51:14.459Z,3.70
2018-07-11T09:53:42.788Z,5.63
2018-07-11T09:56:11.111Z,5.27
2018-07-11T09:58:39.888Z,3.73
2018-07-11T10:01:13.689Z,3.60
2018-07-11T10:03:42.016Z,4.73
2018-07-11T10:06:10.346Z,4.50
2018-07-11T10:08:38.681Z,4.30
2018-07-11T10:11:07.071Z,6.73
2018-07-11T10:13:35.407Z,4.07
2018-07-11T10:16:03.727Z,3.93
2018-07-11T10:18:32.032Z,4.20
2018-07-11T10:21:00.278Z,4.37
2018-07-11T10:23:28.545Z,3.43
2018-07-11T10:25:56.914Z,4.90
2018-07-11T10:28:25.774Z,2.90
2018-07-11T10:30:53.999Z,4.00
2018-07-11T10:33:22.253Z,4.43
2018-07-11T10:35:50.593Z,5.13
2018-07-11T10:38:18.843Z,2.80
2018-07-11T10:40:47.088Z,4.43
2018-07-11T10:43:15.375Z,4.23
2018-07-11T10:45:43.647Z,3.33
2018-07-11T10:48:11.948Z,2.97
2018-07-11T10:50:40.323Z,3.17
2018-07-11T10:53:08.661Z,6.30
2018-07-11T10:55:36.918Z,4.20
2018-07-11T10:58:05.216Z,3.60
2018-07-11T11:00:37.137Z,3.87
2018-07-11T11:03:01.753Z,3.90
2018-07-11T11:05:30.045Z,3.47
2018-07-11T11:07:58.985Z,2.80
2018-07-11T11:10:27.264Z,3.73
2018-07-11T11:12:55.490Z,3.17
2018-07-11T11:15:23.776Z,6.43
2018-07-11T11:17:52.025Z,7.20
2018-07-11T11:20:20.331Z,5.70
2018-07-11T11:22:48.616Z,3.00
2018-07-11T11:25:16.898Z,8.63
2018-07-11T11:27:45.160Z,4.23
2018-07-11T11:30:13.457Z,4.20
2018-07-11T11:32:41.952Z,3.67
2018-07-11T11:35:10.261Z,4.53
2018-07-11T11:37:38.495Z,3.50
2018-07-11T11:40:23.889Z,4.07
2018-07-11T11:42:52.271Z,3.60
2018-07-11T11:45:20.520Z,5.20
2018-07-11T11:47:51.171Z,5.23
2018-07-11T11:50:19.444Z,2.83
2018-07-11T11:52:48.489Z,2.60
2018-07-11T11:55:16.724Z,2.73
2018-07-11T11:57:45.084Z,2.47
2018-07-11T12:00:13.416Z,3.20
2018-07-11T12:02:41.681Z,3.37
2018-07-11T12:05:09.957Z,2.90
2018-07-11T12:07:38.244Z,2.67
2018-07-11T12:10:06.721Z,3.97
2018-07-11T12:12:34.993Z,2.83
2018-07-11T12:15:03.677Z,12.13
2018-07-11T12:17:36.110Z,3.23
2018-07-11T12:22:38.671Z,2.23
2018-07-11T12:25:06.920Z,3.03
2018-07-11T12:27:35.254Z,2.20
2018-07-11T12:30:03.508Z,3.10
2018-07-11T12:32:31.736Z,3.10
2018-07-11T12:34:59.964Z,4.30
2018-07-11T12:37:31.892Z,2.17
2018-07-11T12:40:00.260Z,5.63
2018-07-11T12:42:28.563Z,3.13
2018-07-11T12:44:56.828Z,4.13
2018-07-11T12:47:30.612Z,5.77
2018-07-11T12:49:58.952Z,2.30
2018-07-11T12:52:27.499Z,2.43
2018-07-11T12:54:55.873Z,4.97
2018-07-11T12:57:25.374Z,7.20
2018-07-11T12:59:53.619Z,5.90
2018-07-11T13:02:21.956Z,3.62
2018-07-11T13:04:50.350Z,4.17
2018-07-11T13:07:18.656Z,4.63
2018-07-11T13:09:47.205Z,4.97
2018-07-11T13:12:29.218Z,3.47
2018-07-11T13:14:57.557Z,2.73
2018-07-11T13:17:25.809Z,2.80
2018-07-11T13:19:54.142Z,3.93
2018-07-11T13:22:22.501Z,3.27
2018-07-11T13:24:50.779Z,2.50
2018-07-11T13:27:19.094Z,2.00
2018-07-11T13:29:47.508Z,2.13
2018-07-11T13:32:15.872Z,3.37
2018-07-11T13:34:44.108Z,2.10
2018-07-11T13:37:13.029Z,5.63
2018-07-11T13:39:41.384Z,2.00
2018-07-11T13:42:09.724Z,2.50
2018-07-11T13:44:38.065Z,4.13
2018-07-11T13:47:11.653Z,2.33
2018-07-11T13:49:39.926Z,4.00
2018-07-11T13:52:08.210Z,4.17
2018-07-11T13:54:36.526Z,2.83
2018-07-11T13:57:05.120Z,6.87
2018-07-11T13:59:33.345Z,2.87
2018-07-11T14:02:01.709Z,2.20
2018-07-11T14:04:29.957Z,2.43
2018-07-11T14:06:58.572Z,2.63
2018-07-11T14:09:26.916Z,1.50
2018-07-11T14:11:55.549Z,1.53
2018-07-11T14:14:24.808Z,1.43
2018-07-11T14:16:53.048Z,1.50
2018-07-11T14:19:21.478Z,1.30
2018-07-11T14:21:50.384Z,2.77
2018-07-11T14:24:18.641Z,2.13
2018-07-11T14:26:46.976Z,1.10
2018-07-11T14:29:15.308Z,2.50
2018-07-11T14:31:43.561Z,2.37
2018-07-11T14:34:11.827Z,2.17
2018-07-11T14:36:40.060Z,1.47
2018-07-11T14:39:08.473Z,1.10
2018-07-11T14:41:36.812Z,1.73
2018-07-11T14:44:05.094Z,2.73
2018-07-11T14:46:34.810Z,1.13
2018-07-11T14:49:03.482Z,1.67
2018-07-11T14:51:31.916Z,1.67
2018-07-11T14:54:00.065Z,1.20
2018-07-11T14:56:28.336Z,0.87
2018-07-11T14:58:57.767Z,0.90
2018-07-11T15:01:26.009Z,1.07
2018-07-11T15:03:54.369Z,2.40
2018-07-11T15:06:23.452Z,1.43
2018-07-11T15:08:52.162Z,0.90
2018-07-11T15:11:20.941Z,1.83
2018-07-11T15:13:49.453Z,1.37
2018-07-11T15:16:18.088Z,1.00
2018-07-11T15:18:47.368Z,2.67
2018-07-11T15:21:15.869Z,1.53
2018-07-11T15:23:45.851Z,1.57
2018-07-11T15:26:14.270Z,1.20
2018-07-11T15:28:42.896Z,0.90
2018-07-11T15:31:11.390Z,1.00
2018-07-11T15:33:39.717Z,1.20
2018-07-11T15:36:07.893Z,1.63
2018-07-11T15:38:36.210Z,1.00
2018-07-11T15:41:04.649Z,1.93
2018-07-11T15:43:33.267Z,1.33
2018-07-11T15:46:01.553Z,1.50
2018-07-11T15:48:29.810Z,2.80
2018-07-11T15:50:58.495Z,2.60
2018-07-11T15:53:27.149Z,1.80
2018-07-11T15:56:01.915Z,2.40
2018-07-11T15:58:31.628Z,0.90
2018-07-11T16:01:04.672Z,2.87
2018-07-11T16:03:35.439Z,1.20
2018-07-11T16:06:03.777Z,1.30
2018-07-11T16:08:32.034Z,1.13
2018-07-11T16:11:03.786Z,1.33
2018-07-11T16:13:32.468Z,1.30
2018-07-11T16:16:00.737Z,1.43
2018-07-11T16:18:29.292Z,1.27
2018-07-11T16:20:57.592Z,4.10
2018-07-11T16:23:25.932Z,1.77
2018-07-11T16:25:54.172Z,1.80
2018-07-11T16:28:22.476Z,1.30
2018-07-11T16:30:50.745Z,2.27
2018-07-11T16:33:19.046Z,1.07
2018-07-11T16:35:47.560Z,1.23
2018-07-11T16:38:15.841Z,1.90
2018-07-11T16:40:44.160Z,1.07
2018-07-11T16:43:13.613Z,0.80
2018-07-11T16:45:41.979Z,1.10
2018-07-11T16:48:10.318Z,1.57
2018-07-11T16:50:38.661Z,1.30
2018-07-11T16:53:07.332Z,3.33
2018-07-11T16:55:36.308Z,1.60
2018-07-11T16:58:04.602Z,2.27
2018-07-11T17:00:33.940Z,1.70
2018-07-11T17:03:11.003Z,1.40
2018-07-11T17:05:49.742Z,1.90
2018-07-11T17:08:21.611Z,1.57
2018-07-11T17:10:49.948Z,1.53
2018-07-11T17:13:21.636Z,2.03
2018-07-11T17:15:51.736Z,2.87
2018-07-11T17:18:44.249Z,1.40
2018-07-11T17:21:47.972Z,2.20
2018-07-11T17:24:16.484Z,3.87
2018-07-11T17:26:46.968Z,1.57
2018-07-11T17:29:20.625Z,1.63
2018-07-11T17:31:51.282Z,3.60
2018-07-11T17:34:19.526Z,1.77
2018-07-11T17:36:49.857Z,1.53
2018-07-11T17:39:18.708Z,1.50
2018-07-11T17:41:47.355Z,3.03
2018-07-11T17:44:16.396Z,2.13
2018-07-11T17:46:45.975Z,1.63
2018-07-11T17:49:21.017Z,1.40
2018-07-11T17:52:03.725Z,1.63
2018-07-11T17:54:45.941Z,1.60
2018-07-11T17:58:22.340Z,1.23
2018-07-11T18:00:53.769Z,2.00
2018-07-11T18:03:30.829Z,1.67
2018-07-11T18:06:10.897Z,1.70
2018-07-11T18:09:16.148Z,1.60
2018-07-11T18:11:56.269Z,2.90
2018-07-11T18:14:48.556Z,1.60
2018-07-11T18:17:23.039Z,1.33
2018-07-11T18:20:00.956Z,2.70
2018-07-11T18:22:42.965Z,4.33
2018-07-11T18:27:28.497Z,1.97
2018-07-11T18:30:20.560Z,4.13
2018-07-11T18:32:53.764Z,2.20
2018-07-11T18:35:32.245Z,1.90
2018-07-11T18:38:24.004Z,1.50
2018-07-11T18:40:55.772Z,1.60
2018-07-11T18:45:37.859Z,1.97
2018-07-11T18:50:21.359Z,1.70
2018-07-11T18:53:02.539Z,2.00
2018-07-11T18:55:40.289Z,1.27
2018-07-11T18:58:18.436Z,1.37
2018-07-11T19:01:00.518Z,1.37
2018-07-11T19:03:35.781Z,1.03
2018-07-11T19:08:21.221Z,2.30
2018-07-11T19:10:58.922Z,2.93
2018-07-11T19:13:32.819Z,1.77
2018-07-11T19:17:20.869Z,2.53
2018-07-11T19:20:00.807Z,2.07
2018-07-11T19:22:42.639Z,1.30
2018-07-11T19:25:26.909Z,4.20
2018-07-11T19:28:05.450Z,1.87
2018-07-11T19:30:49.047Z,1.47
2018-07-11T19:33:30.109Z,1.33
2018-07-11T19:36:18.441Z,1.03
2018-07-11T19:39:01.070Z,2.27
2018-07-11T19:41:46.793Z,1.40
2018-07-11T19:44:27.335Z,1.40
2018-07-11T19:47:06.904Z,1.70
2018-07-11T19:52:03.125Z,2.27
2018-07-11T19:54:43.248Z,1.50
2018-07-11T19:57:11.568Z,3.13
2018-07-11T19:59:40.024Z,3.57
2018-07-11T20:02:08.328Z,2.37
2018-07-11T20:04:37.237Z,2.70
2018-07-11T20:07:05.593Z,2.97
2018-07-11T20:09:33.937Z,2.77
2018-07-11T20:12:02.219Z,2.63
2018-07-11T20:14:30.760Z,4.40
2018-07-11T20:16:59.025Z,2.33
2018-07-11T20:19:27.906Z,2.47
2018-07-11T20:21:56.472Z,1.70
2018-07-11T20:24:24.700Z,3.13
2018-07-11T20:26:52.939Z,1.73
2018-07-11T20:29:21.199Z,2.27
2018-07-11T20:31:49.495Z,1.67
2018-07-11T20:34:17.709Z,3.77
2018-07-11T20:36:45.935Z,2.80
2018-07-11T20:39:14.316Z,1.90
2018-07-11T20:41:42.836Z,2.10
2018-07-11T20:44:11.148Z,3.97
2018-07-11T20:46:39.660Z,2.30
2018-07-11T20:49:17.060Z,3.97
2018-07-11T20:51:46.066Z,3.40
2018-07-11T20:54:14.335Z,1.97
2018-07-11T20:56:42.709Z,2.93
2018-07-11T20:59:22.281Z,2.40
2018-07-11T21:02:01.857Z,1.80
2018-07-11T21:04:48.462Z,2.03
2018-07-11T21:07:28.014Z,2.70
2018-07-11T21:10:04.511Z,2.13
2018-07-11T21:12:44.132Z,2.30
2018-07-11T21:15:25.060Z,2.57
2018-07-11T21:18:07.480Z,3.50
2018-07-11T21:20:35.985Z,4.00
2018-07-11T21:23:04.358Z,6.00
2018-07-11T21:25:32.548Z,5.30
2018-07-11T21:28:00.844Z,3.10
2018-07-11T21:30:29.071Z,7.10
2018-07-11T21:32:57.367Z,5.27
2018-07-11T21:35:25.665Z,4.00
2018-07-11T21:37:53.940Z,4.40
2018-07-11T21:40:22.192Z,6.30
2018-07-11T21:42:50.469Z,4.17
2018-07-11T21:45:19.324Z,6.33
2018-07-11T21:47:47.564Z,2.07
2018-07-11T21:50:15.808Z,1.93
2018-07-11T21:52:44.096Z,4.00
2018-07-11T21:55:12.436Z,3.43
2018-07-11T21:57:40.736Z,6.17
2018-07-11T22:00:09.025Z,5.00
2018-07-11T22:02:37.226Z,3.47
2018-07-11T22:05:05.885Z,3.40
2018-07-11T22:07:34.253Z,4.07
2018-07-11T22:10:02.542Z,4.43
2018-07-11T22:12:30.759Z,3.20
2018-07-11T22:14:59.008Z,4.83
2018-07-11T22:17:37.435Z,3.67
2018-07-11T22:20:04.665Z,3.27
2018-07-11T22:22:31.897Z,3.77
2018-07-11T22:24:59.113Z,5.30
2018-07-11T22:27:26.604Z,2.20
2018-07-11T22:29:53.829Z,2.23
2018-07-11T22:32:21.028Z,1.90
2018-07-11T22:34:48.248Z,6.53
2018-07-11T22:37:15.460Z,3.23
2018-07-11T22:39:42.784Z,2.23
2018-07-11T22:42:10.018Z,2.60
2018-07-11T22:44:37.228Z,3.23
2018-07-11T22:47:04.465Z,2.20
2018-07-11T22:49:31.685Z,4.77
2018-07-11T22:51:58.925Z,2.00
2018-07-11T22:54:26.140Z,3.57
2018-07-11T22:56:53.375Z,2.63
2018-07-11T22:59:20.674Z,5.10
2018-07-11T23:01:47.954Z,3.27
2018-07-11T23:04:15.172Z,2.70
2018-07-11T23:06:42.437Z,6.33
2018-07-11T23:09:09.654Z,2.87
2018-07-11T23:11:36.862Z,2.30
2018-07-11T23:14:04.090Z,3.63
2018-07-11T23:16:32.150Z,2.57
2018-07-11T23:18:59.402Z,3.50
2018-07-11T23:21:26.622Z,2.83
2018-07-11T23:23:53.880Z,2.67
2018-07-11T23:26:21.072Z,2.30
2018-07-11T23:28:48.304Z,3.10
2018-07-11T23:49:58.933Z,1.73
2018-07-11T23:52:26.185Z,2.30
2018-07-11T23:54:53.434Z,3.07
2018-07-11T23:57:20.677Z,2.27
2018-07-11T23:59:47.863Z,2.87
